Latest Weather Observations for Braidwood

IDN60801

Issued at 11:32 pm EST Tuesday 1 September 2015 (issued every 30 minutes, with the page automatically refreshed every 10 minutes)

About weather observations | Map of weather stations | Latest weather observations for NSW | Other Formats
Station Details ID: 069132 Name: BRAIDWOOD RACECOURSE AWS Lat: -35.43 Lon: 149.78 Height: 665.2 m
Data from the previous 72 hours. | See also: Recent months at Braidwood
Date/Time
EST
Temp
°C
App
Temp
°C
Dew
Point
Rel
Hum
%
Delta-T
°C
Wind Press
QNH
hPa
Press
MSL
hPa
Rain
since 9 am
mm
Dir
 
Spd
km/h
Gust
km/h
Spd
kts
Gust
kts
01/11:30pm 1.7 -0.6 0.7 93 0.4 NNW 2 6 1 3 1016.4 1016.3 0.0
01/11:00pm 1.4 -0.6 -0.4 88 0.7 CALM 0 0 0 0 1016.1 1016.0 0.0
01/10:30pm 2.9 0.4 1.3 89 0.6 NNW 4 7 2 4 1016.1 1016.0 0.0
01/10:00pm 3.4 1.2 1.0 84 1.0 WNW 2 6 1 3 1015.8 1015.6 0.0
01/09:30pm 4.3 1.2 1.5 82 1.1 NW 7 11 4 6 1015.6 1015.5 0.0
01/09:00pm 3.7 0.6 1.1 83 1.0 NW 7 11 4 6 1015.4 1015.3 0.0
01/08:30pm 3.5 0.5 0.9 83 1.0 NNW 6 9 3 5 1015.4 1015.3 0.0
01/08:00pm 4.3 1.4 1.5 82 1.1 NW 6 9 3 5 1015.0 1014.9 0.0
01/07:30pm 4.5 2.1 1.9 83 1.1 NNW 4 7 2 4 1014.6 1014.5 0.0
01/07:00pm 5.1 2.7 1.9 80 1.3 NNW 4 6 2 3 1014.5 1014.3 0.0
01/06:30pm 6.2 3.2 2.3 76 1.7 NNW 7 11 4 6 1014.0 1013.9 0.0
01/06:00pm 7.7 4.5 2.8 71 2.1 NNW 9 15 5 8 1013.9 1013.8 0.0
01/05:30pm 9.3 6.1 3.3 66 2.7 NNW 9 17 5 9 1013.6 1013.5 0.0
01/05:00pm 11.0 6.3 3.3 59 3.5 NW 17 26 9 14 1013.3 1013.2 0.0
01/04:30pm 12.4 9.0 4.1 57 3.9 NNW 11 20 6 11 1013.2 1013.0 0.0
01/04:00pm 13.3 10.0 4.5 55 4.2 NNW 11 20 6 11 1013.1 1012.9 0.0
01/03:30pm 13.5 9.7 3.8 52 4.6 NNW 13 24 7 13 1013.0 1012.8 0.0
01/03:00pm 13.6 9.1 2.2 46 5.2 NW 15 22 8 12 1013.0 1012.8 0.0
01/02:30pm 13.5 8.9 1.5 44 5.4 WNW 15 24 8 13 1013.0 1012.8 0.0
01/02:00pm 13.5 9.2 0.9 42 5.6 NW 13 19 7 10 1012.9 1012.7 0.0
01/01:30pm 13.5 9.5 3.0 49 4.9 NW 13 22 7 12 1013.1 1012.9 0.0
01/01:00pm 12.9 9.0 3.6 53 4.3 NNW 13 20 7 11 1013.3 1013.2 0.0
01/12:30pm 12.8 10.0 2.9 51 4.5 N 7 13 4 7 1013.7 1013.6 0.0
01/12:00pm 12.5 9.7 2.9 52 4.4 NNW 7 15 4 8 1014.2 1014.0 0.0
01/11:30am 11.2 8.7 1.5 51 4.3 NNE 4 17 2 9 1014.5 1014.3 0.0
01/11:00am 10.1 7.4 0.2 50 4.2 WNW 4 9 2 5 1014.6 1014.5 0.0
01/10:30am 9.5 7.8 1.7 58 3.4 CALM 0 0 0 0 1014.7 1014.6 0.0
01/10:00am 8.3 5.9 2.3 66 2.6 N 4 7 2 4 1015.0 1014.9 0.0
01/09:30am 7.2 4.5 2.7 73 2.0 NNE 6 9 3 5 1015.1 1015.9 0.0
01/09:00am 5.7 3.3 2.0 77 1.6 N 4 6 2 3 1015.2 1016.0 0.2
01/08:30am 4.3 2.2 1.8 84 1.0 N 2 6 1 3 1015.3 1016.1 0.2
01/08:00am 2.0 -0.2 0.8 92 0.5 NNE 2 6 1 3 1015.3 1016.1 0.2
01/07:30am 0.3 -2.9 -0.3 96 0.2 NNW 6 9 3 5 1015.2 1016.0 0.2
01/07:00am -1.4 -3.7 -2.1 95 0.2 CALM 0 0 0 0 1015.0 1015.7 0.2
01/06:30am -1.1 -3.7 -1.7 96 0.2 SE 2 6 1 3 1014.7 1015.4 0.2
01/06:00am -1.4 -4.0 -2.0 96 0.1 SW 2 4 1 2 1014.4 1015.1 0.2
01/05:30am -0.6 -2.8 -1.2 96 0.2 CALM 0 0 0 0 1014.4 1015.1 0.2
01/05:00am -0.6 -3.1 -1.3 95 0.2 E 2 4 1 2 1014.2 1014.9 0.2
01/04:30am -0.8 -3.0 -1.5 95 0.2 CALM 0 0 0 0 1014.0 1014.8 0.2
01/04:00am 0.8 -1.9 0.2 96 0.2 NNW 4 6 2 3 1014.2 1014.9 0.2
01/03:30am 1.1 -1.6 0.4 95 0.3 N 4 7 2 4 1014.4 1015.1 0.2
01/03:00am 1.2 -2.2 -0.6 88 0.7 NW 7 9 4 5 1014.5 1015.2 0.2
01/02:30am 2.1 0.1 0.2 87 0.7 CALM 0 2 0 1 1014.5 1015.2 0.2
01/02:00am 3.0 0.3 0.1 81 1.1 S 4 6 2 3 1014.7 1015.4 0.2
01/01:30am 3.6 0.4 0.8 82 1.1 W 7 9 4 5 1015.1 1015.9 0.2
01/01:00am 4.5 2.0 1.4 80 1.3 WSW 4 9 2 5 1015.2 1016.0 0.2
01/12:30am 4.5 2.8 1.7 82 1.2 CALM 0 0 0 0 1015.3 1016.1 0.2
01/12:00am 5.1 3.0 1.8 79 1.4 S 2 6 1 3 1015.4 1016.2 0.2
 
Date/Time
EST
Temp
°C
App
Temp
°C
Dew
Point
Rel
Hum
%
Delta-T
°C
Wind Press
QNH
hPa
Press
MSL
hPa
Rain
since 9 am
mm
Dir
 
Spd
km/h
Gust
km/h
Spd
kts
Gust
kts
31/11:30pm 6.4 3.6 3.4 81 1.3 SW 7 11 4 6 1015.4 1016.2 0.2
31/11:00pm 5.9 4.8 5.0 94 0.4 CALM 0 0 0 0 1015.4 1016.2 0.2
31/10:30pm 6.1 5.1 5.4 95 0.3 CALM 0 0 0 0 1015.5 1016.3 0.2
31/10:00pm 5.4 4.1 3.9 90 0.7 CALM 0 0 0 0 1015.6 1016.4 0.0
31/09:30pm 6.9 5.2 5.7 92 0.6 SSE 4 7 2 4 1015.8 1016.5 0.0
31/09:00pm 7.0 4.3 5.6 91 0.6 S 9 11 5 6 1015.8 1016.5 0.0
31/08:30pm 7.5 5.7 5.5 87 0.9 SE 4 7 2 4 1015.6 1016.4 0.0
31/08:00pm 7.8 6.0 5.4 85 1.1 SE 4 15 2 8 1015.4 1016.2 0.0
31/07:30pm 7.4 5.2 5.2 86 1.0 ESE 6 7 3 4 1015.3 1016.1 0.0
31/07:00pm 7.3 5.4 4.8 84 1.1 SE 4 7 2 4 1015.2 1016.0 0.0
31/06:30pm 7.7 5.3 5.2 84 1.2 SE 7 9 4 5 1014.8 1015.5 0.0
31/06:00pm 7.9 5.1 5.0 82 1.3 E 9 11 5 6 1014.6 1015.3 0.0
31/05:30pm 8.5 4.9 5.1 79 1.6 ESE 13 15 7 8 1014.3 1015.0 0.0
31/05:00pm 9.7 6.3 4.1 68 2.6 E 11 13 6 7 1014.0 1014.8 0.0
31/04:30pm 10.5 7.7 1.9 55 3.8 E 6 7 3 4 1013.8 1014.6 0.0
31/04:00pm 12.4 10.4 0.2 43 5.3 CALM 0 0 0 0 1013.7 1014.4 0.0
31/03:30pm 14.0 10.8 -0.4 37 6.2 N 6 9 3 5 1013.7 1014.4 0.0
31/03:00pm 13.3 10.2 0.0 40 5.8 NW 6 13 3 7 1013.8 1014.6 0.0
31/02:30pm 13.8 10.8 0.5 40 5.8 NNW 6 11 3 6 1014.2 1014.9 0.0
31/02:00pm 13.5 10.7 -0.2 39 5.9 NNW 4 7 2 4 1014.5 1015.2 0.0
31/01:30pm 12.7 9.9 -0.2 41 5.5 SW 4 13 2 7 1014.8 1015.5 0.0
31/01:00pm 12.2 9.8 -0.3 42 5.3 WSW 2 7 1 4 1015.1 1015.9 0.0
31/12:30pm 12.2 9.1 0.3 44 5.1 N 6 9 3 5 1015.4 1016.2 0.0
31/12:00pm 11.2 8.2 0.6 48 4.6 ENE 6 13 3 7 1015.8 1016.5 0.0
31/11:30am 10.8 7.8 0.8 50 4.3 SSW 6 11 3 6 1016.3 1017.0 0.0
31/11:00am 10.7 7.9 -0.1 47 4.5 NE 4 6 2 3 1016.6 1017.4 0.0
31/10:30am 10.3 7.7 0.9 52 4.0 SE 4 6 2 3 1016.9 1017.7 0.0
31/10:00am 9.3 6.2 0.2 53 3.8 SW 6 9 3 5 1017.1 1017.9 0.0
31/09:30am 8.5 5.4 0.0 55 3.5 SW 6 9 3 5 1017.2 1018.0 0.0
31/09:00am 7.3 4.0 0.3 61 2.9 SW 7 11 4 6 1017.4 1018.1 0.0
31/08:30am 5.5 2.2 -0.1 67 2.2 WSW 7 11 4 6 1017.4 1018.1 0.0
31/08:00am 4.3 0.9 -0.7 70 1.9 W 7 11 4 6 1017.4 1018.1 0.0
31/07:30am 1.3 -1.7 -1.8 80 1.1 NNW 4 7 2 4 1017.5 1018.2 0.0
31/07:00am 0.1 -3.0 -2.4 83 0.9 NNW 4 7 2 4 1017.5 1018.2 0.0
31/06:30am -0.7 -3.8 -2.9 85 0.7 NNW 4 6 2 3 1017.2 1018.0 0.0
31/06:00am -0.2 -3.7 -3.1 81 1.0 NW 6 11 3 6 1016.9 1017.7 0.0
31/05:30am 1.6 -1.8 -2.3 75 1.4 SW 6 7 3 4 1016.8 1017.6 0.0
31/05:00am 2.0 -1.4 -2.0 75 1.5 SW 6 11 3 6 1016.9 1017.7 0.0
31/04:30am 1.2 -1.1 -2.2 78 1.3 CALM 0 2 0 1 1016.9 1017.7 0.0
31/04:00am 2.6 -1.0 -2.3 70 1.8 WSW 7 13 4 7 1017.0 1017.8 0.0
31/03:30am 3.2 -1.4 -1.3 72 1.7 SW 13 19 7 10 1017.0 1017.8 0.0
31/03:00am 3.1 -1.2 -1.3 73 1.7 SW 11 15 6 8 1017.4 1018.1 0.0
31/02:30am 3.3 -1.0 -1.4 71 1.8 WSW 11 15 6 8 1017.7 1018.5 0.0
31/02:00am 3.7 -0.1 -0.9 72 1.8 SW 9 13 5 7 1018.3 1019.1 0.0
31/01:30am 3.4 -0.4 -0.4 76 1.5 WSW 9 15 5 8 1018.5 1019.3 0.0
31/01:00am 3.8 0.0 -0.6 73 1.7 SSW 9 13 5 7 1018.6 1019.4 0.0
31/12:30am 3.2 0.0 -0.6 76 1.5 W 6 9 3 5 1018.8 1019.6 0.0
31/12:00am 3.5 0.7 -0.7 74 1.6 SW 4 7 2 4 1019.0 1019.8 0.0
 
Date/Time
EST
Temp
°C
App
Temp
°C
Dew
Point
Rel
Hum
%
Delta-T
°C
Wind Press
QNH
hPa
Press
MSL
hPa
Rain
since 9 am
mm
Dir
 
Spd
km/h
Gust
km/h
Spd
kts
Gust
kts
30/11:30pm 4.2 0.1 -0.2 73 1.7 SW 11 17 6 9 1019.2 1020.0 0.0
30/11:00pm 4.3 0.7 0.3 75 1.6 SW 9 15 5 8 1019.2 1020.0 0.0
30/10:30pm 4.9 0.9 0.5 73 1.8 SW 11 17 6 9 1019.3 1020.1 0.0
30/10:00pm 5.5 1.9 0.9 72 1.9 SW 9 13 5 7 1019.6 1020.4 0.0
30/09:30pm 4.9 2.3 0.7 74 1.7 SSE 4 6 2 3 1019.8 1020.6 0.0
30/09:00pm 5.9 2.8 1.1 71 2.0 SSW 7 13 4 7 1019.7 1020.5 0.0
30/08:30pm 6.1 3.2 1.4 72 2.0 WSW 6 9 3 5 1019.6 1020.4 0.0
30/08:00pm 6.6 3.5 1.5 70 2.1 SW 7 13 4 7 1019.4 1020.2 0.0
30/07:30pm 7.1 3.7 1.8 69 2.3 SW 9 15 5 8 1019.2 1020.0 0.0
30/07:00pm 8.0 3.4 1.8 65 2.7 SSW 15 20 8 11 1019.1 1019.9 0.0
30/06:30pm 7.8 4.1 2.5 69 2.3 SSW 11 17 6 9 1019.0 1019.8 0.0
30/06:00pm 7.8 4.1 2.3 68 2.4 SSW 11 15 6 8 1018.6 1019.4 0.0
30/05:30pm 8.8 5.3 3.4 69 2.4 S 11 15 6 8 1018.4 1019.2 0.0
30/05:00pm 9.8 5.9 3.3 64 2.9 S 13 17 7 9 1018.0 1018.8 0.0
30/04:30pm 10.1 6.2 3.4 63 3.0 S 13 20 7 11 1017.9 1018.7 0.0
30/04:00pm 10.3 6.5 3.8 64 3.0 S 13 19 7 10 1017.8 1018.6 0.0
30/03:30pm 10.5 5.9 3.8 63 3.1 S 17 22 9 12 1017.8 1018.6 0.0
30/03:00pm 11.2 7.2 2.8 56 3.8 SSW 13 22 7 12 1017.9 1018.7 0.0
30/02:30pm 11.6 8.0 2.9 55 3.9 SW 11 20 6 11 1017.8 1018.6 0.0
30/02:00pm 12.1 8.3 3.9 57 3.8 SW 13 20 7 11 1017.8 1018.6 0.0
30/01:30pm 11.5 8.3 3.3 57 3.8 SSW 9 15 5 8 1018.0 1018.8 0.0
30/01:00pm 11.4 7.7 2.4 54 4.0 SSW 11 17 6 9 1018.3 1019.1 0.0
30/12:30pm 11.4 7.8 2.9 56 3.9 SW 11 17 6 9 1018.6 1019.4 0.0
30/12:00pm 11.4 8.5 2.7 55 3.9 S 7 17 4 9 1018.8 1019.6 0.0
30/11:30am 10.9 8.1 2.2 55 3.9 W 6 15 3 8 1019.4 1020.2 0.0
30/11:00am 10.6 7.1 3.4 61 3.3 SSW 11 17 6 9 1019.7 1020.5 0.0
30/10:30am 9.9 7.1 3.0 62 3.1 SSW 7 15 4 8 1019.9 1020.7 0.0
30/10:00am 8.7 4.6 2.3 64 2.8 SSW 13 17 7 9 1019.9 1020.7 0.0
30/09:30am 8.3 5.0 2.3 66 2.6 WSW 9 17 5 9 1020.0 1020.8 0.0
30/09:00am 7.6 6.0 2.7 71 2.1 CALM 0 0 0 0 1020.1 1020.9 0.2
30/08:30am 6.0 4.5 2.8 80 1.4 CALM 0 0 0 0 1020.2 1021.1 0.2
30/08:00am 4.1 2.5 2.3 88 0.7 CALM 0 0 0 0 1020.0 1020.8 0.2
30/07:30am 1.1 -0.8 0.4 95 0.3 CALM 0 0 0 0 1019.8 1020.6 0.2
30/07:00am -0.9 -3.1 -1.6 95 0.2 CALM 0 0 0 0 1019.7 1020.5 0.0
30/06:30am -0.9 -3.1 -1.6 95 0.2 CALM 0 0 0 0 1019.5 1020.3 0.0
30/06:00am -1.1 -3.4 -2.1 93 0.3 CALM 0 6 0 3 1019.4 1020.2 0.0
30/05:30am -1.1 -3.4 -2.4 91 0.4 CALM 0 0 0 0 1019.4 1020.2 0.0
30/05:00am 0.4 -1.6 -0.2 96 0.2 CALM 0 4 0 2 1019.3 1020.1 0.0
30/04:30am -0.2 -2.3 -0.8 96 0.2 CALM 0 0 0 0 1019.4 1020.2 0.0
30/04:00am -1.4 -3.7 -2.4 93 0.3 CALM 0 0 0 0 1019.4 1020.2 0.0
30/03:30am -0.6 -2.8 -1.7 92 0.4 CALM 0 0 0 0 1019.6 1020.4 0.0
30/03:00am 0.3 -3.1 -0.4 95 0.3 N 7 9 4 5 1019.6 1020.4 0.0
30/02:30am 0.0 -2.1 -0.7 95 0.3 CALM 0 0 0 0 1019.8 1020.6 0.0
30/02:00am 0.1 -2.0 -1.0 92 0.4 CALM 0 0 0 0 1020.1 1020.9 0.0
30/01:30am 0.2 -2.0 -1.2 90 0.5 CALM 0 4 0 2 1020.6 1021.4 0.0
30/01:00am 1.0 -2.4 -0.5 90 0.6 NW 7 11 4 6 1020.8 1021.6 0.0
30/12:30am 1.0 -1.9 -0.9 87 0.7 N 4 6 2 3 1021.0 1021.8 0.0
30/12:00am 1.6 -0.8 -0.5 86 0.8 NW 2 4 1 2 1021.0 1021.8 0.0

Other Formats:

Comma delimited format used in spreadsheet applications
http://www.bom.gov.au/fwo/IDN60801/IDN60801.94927.axf

JavaScript Object Notation format (JSON) in row-major order
http://www.bom.gov.au/fwo/IDN60801/IDN60801.94927.json